createdAt,value
2018-08-30T00:02:01.541Z,69.35
2018-08-30T00:04:30.312Z,68.02
2018-08-30T00:06:58.970Z,68.28
2018-08-30T00:09:27.618Z,68.05
2018-08-30T00:11:56.488Z,69.98
2018-08-30T00:14:26.023Z,69.99
2018-08-30T00:16:54.743Z,70.17
2018-08-30T00:19:23.384Z,70.45
2018-08-30T00:21:52.087Z,69.48
2018-08-30T00:24:20.652Z,69.09
2018-08-30T00:26:49.441Z,68.18
2018-08-30T00:29:18.160Z,68.18
2018-08-30T00:31:47.011Z,68.26
2018-08-30T00:34:15.568Z,67.45
2018-08-30T00:36:44.213Z,67.88
2018-08-30T00:39:12.937Z,68.42
2018-08-30T00:41:41.564Z,67.69
2018-08-30T00:44:11.137Z,68.41
2018-08-30T00:46:39.758Z,68.12
2018-08-30T00:49:08.451Z,68.28
2018-08-30T00:51:37.131Z,68.47
2018-08-30T00:54:06.618Z,69.34
2018-08-30T00:56:35.931Z,68.96
2018-08-30T00:59:04.622Z,69.79
2018-08-30T01:01:33.339Z,70.13
2018-08-30T01:04:02.043Z,68.97
2018-08-30T01:06:31.331Z,70.06
2018-08-30T01:08:59.997Z,69.73
2018-08-30T01:11:29.226Z,69.37
2018-08-30T01:13:58.064Z,69.52
2018-08-30T01:16:27.675Z,70.07
2018-08-30T01:18:56.946Z,69.36
2018-08-30T01:21:25.664Z,69.27
2018-08-30T01:23:54.478Z,70.08
2018-08-30T01:26:23.379Z,70.51
2018-08-30T01:28:52.087Z,69.44
2018-08-30T01:31:20.852Z,70.38
2018-08-30T01:33:49.484Z,70.39
2018-08-30T01:36:18.130Z,70.18
2018-08-30T01:38:46.670Z,72.28
2018-08-30T01:41:15.748Z,72.13
2018-08-30T01:43:44.422Z,71.54
2018-08-30T01:46:13.145Z,72.70
2018-08-30T01:48:41.773Z,72.49
2018-08-30T01:51:10.471Z,72.51
2018-08-30T01:53:39.175Z,73.52
2018-08-30T01:56:08.011Z,72.43
2018-08-30T01:58:36.550Z,72.70
2018-08-30T02:01:05.448Z,72.65
2018-08-30T02:03:34.096Z,71.87
2018-08-30T02:06:02.963Z,71.29
2018-08-30T02:08:31.632Z,72.00
2018-08-30T02:11:00.204Z,71.58
2018-08-30T02:13:29.223Z,71.70
2018-08-30T02:15:57.925Z,71.73
2018-08-30T02:18:26.539Z,71.17
2018-08-30T02:20:55.851Z,71.03
2018-08-30T02:23:25.012Z,71.12
2018-08-30T02:25:53.961Z,71.05
2018-08-30T02:28:22.738Z,71.51
2018-08-30T02:30:51.623Z,71.35
2018-08-30T02:33:20.600Z,71.39
2018-08-30T02:35:49.275Z,71.65
2018-08-30T02:38:17.903Z,71.80
2018-08-30T02:40:46.604Z,71.66
2018-08-30T02:43:15.173Z,70.92
2018-08-30T02:45:44.370Z,71.16
2018-08-30T02:48:13.096Z,71.20
2018-08-30T02:50:41.731Z,71.44
2018-08-30T02:53:10.440Z,71.73
2018-08-30T02:55:39.116Z,71.80
2018-08-30T02:58:08.232Z,72.34
2018-08-30T03:00:36.908Z,71.82
2018-08-30T03:03:05.655Z,72.38
2018-08-30T03:05:35.119Z,71.55
2018-08-30T03:08:04.735Z,71.48
2018-08-30T03:10:33.611Z,71.74
2018-08-30T03:13:02.196Z,70.94
2018-08-30T03:15:30.867Z,72.11
2018-08-30T03:18:00.304Z,72.37
2018-08-30T03:20:28.875Z,72.08
2018-08-30T03:22:57.711Z,72.51
2018-08-30T03:25:26.274Z,72.85
2018-08-30T03:27:54.891Z,72.44
2018-08-30T03:30:23.709Z,72.51
2018-08-30T03:32:53.007Z,72.65
2018-08-30T03:35:21.748Z,72.53
2018-08-30T03:37:51.089Z,73.21
2018-08-30T03:40:20.792Z,73.47
2018-08-30T03:42:49.651Z,73.12
2018-08-30T03:45:19.108Z,73.10
2018-08-30T03:47:47.624Z,72.32
2018-08-30T03:50:16.243Z,72.60
2018-08-30T03:52:45.003Z,73.07
2018-08-30T03:55:13.703Z,72.67
2018-08-30T03:57:42.382Z,72.67
2018-08-30T04:00:11.051Z,72.23
2018-08-30T04:02:39.773Z,72.77
2018-08-30T04:05:08.399Z,72.83
2018-08-30T04:07:37.088Z,73.29
2018-08-30T04:10:05.788Z,72.40
2018-08-30T04:12:34.505Z,72.66
2018-08-30T04:15:03.160Z,72.40
2018-08-30T04:17:32.000Z,72.26
2018-08-30T04:20:01.407Z,71.87
2018-08-30T04:22:30.040Z,71.29
2018-08-30T04:24:58.714Z,71.90
2018-08-30T04:27:27.402Z,71.30
2018-08-30T04:29:56.064Z,71.53
2018-08-30T04:32:24.772Z,71.64
2018-08-30T04:34:53.315Z,71.07
2018-08-30T04:37:22.161Z,71.66
2018-08-30T04:39:51.647Z,71.92
2018-08-30T04:42:20.565Z,72.31
2018-08-30T04:44:49.246Z,72.03
2018-08-30T04:47:18.103Z,71.62
2018-08-30T04:49:46.720Z,71.39
2018-08-30T04:52:15.495Z,71.55
2018-08-30T04:54:44.352Z,71.86
2018-08-30T04:57:12.903Z,70.89
2018-08-30T04:59:42.126Z,70.45
2018-08-30T05:02:10.865Z,71.02
2018-08-30T05:04:39.569Z,70.47
2018-08-30T05:07:08.763Z,70.74
2018-08-30T05:09:37.492Z,70.69
2018-08-30T05:12:06.163Z,70.14
2018-08-30T05:14:34.980Z,70.45
2018-08-30T05:17:03.979Z,70.14
2018-08-30T05:19:33.265Z,69.42
2018-08-30T05:22:03.145Z,69.95
2018-08-30T05:24:32.039Z,69.32
2018-08-30T05:27:00.780Z,69.91
2018-08-30T05:29:29.424Z,69.73
2018-08-30T05:31:58.217Z,69.55
2018-08-30T05:34:26.773Z,68.50
2018-08-30T05:36:56.101Z,68.24
2018-08-30T05:39:24.777Z,68.53
2018-08-30T05:41:54.283Z,67.73
2018-08-30T05:44:22.977Z,67.22
2018-08-30T05:46:52.915Z,68.22
2018-08-30T05:49:22.371Z,67.85
2018-08-30T05:51:50.988Z,67.54
2018-08-30T05:54:20.136Z,66.93
2018-08-30T05:56:49.057Z,66.29
2018-08-30T05:59:18.349Z,66.22
2018-08-30T06:01:47.039Z,65.79
2018-08-30T06:04:17.124Z,65.86
2018-08-30T06:06:45.820Z,65.70
2018-08-30T06:09:14.529Z,65.38
2018-08-30T06:11:43.850Z,66.04
2018-08-30T06:14:12.666Z,65.17
2018-08-30T06:16:41.379Z,65.16
2018-08-30T06:19:10.057Z,65.35
2018-08-30T06:21:38.737Z,65.14
2018-08-30T06:24:07.529Z,66.25
2018-08-30T06:26:36.977Z,65.84
2018-08-30T06:29:06.230Z,65.42
2018-08-30T06:31:34.792Z,64.73
2018-08-30T06:34:03.913Z,64.46
2018-08-30T06:36:33.204Z,65.26
2018-08-30T06:39:02.346Z,66.58
2018-08-30T06:41:30.887Z,65.61
2018-08-30T06:43:59.567Z,65.75
2018-08-30T06:46:28.431Z,64.81
2018-08-30T06:48:57.386Z,64.87
2018-08-30T06:51:26.739Z,65.19
2018-08-30T06:53:55.368Z,64.87
2018-08-30T06:56:24.760Z,64.50
2018-08-30T06:58:53.721Z,66.39
2018-08-30T07:01:22.467Z,65.70
2018-08-30T07:03:51.119Z,66.31
2018-08-30T07:06:19.759Z,66.19
2018-08-30T07:08:48.478Z,66.23
2018-08-30T07:11:25.872Z,66.32
2018-08-30T07:14:03.223Z,66.14
2018-08-30T07:16:31.965Z,67.11
2018-08-30T07:22:03.325Z,66.63
2018-08-30T07:24:31.988Z,66.36
2018-08-30T07:27:00.873Z,67.17
2018-08-30T07:29:29.612Z,66.89
2018-08-30T07:31:58.286Z,66.33
2018-08-30T07:34:27.280Z,66.40
2018-08-30T07:36:56.063Z,67.23
2018-08-30T07:39:24.954Z,66.84
2018-08-30T07:41:53.800Z,67.15
2018-08-30T07:44:22.794Z,67.68
2018-08-30T07:46:51.397Z,67.80
2018-08-30T07:49:21.013Z,66.91
2018-08-30T07:51:50.002Z,67.50
2018-08-30T07:54:18.694Z,67.53
2018-08-30T07:56:47.381Z,67.50
2018-08-30T07:59:16.000Z,67.49
2018-08-30T08:01:45.491Z,67.17
2018-08-30T08:04:14.036Z,67.21
2018-08-30T08:06:42.556Z,66.56
2018-08-30T08:09:11.567Z,66.40
2018-08-30T08:11:40.280Z,66.74
2018-08-30T08:14:08.931Z,67.82
2018-08-30T08:16:38.321Z,66.54
2018-08-30T08:19:06.956Z,66.55
2018-08-30T08:21:36.243Z,66.27
2018-08-30T08:24:04.900Z,66.11
2018-08-30T08:26:33.921Z,64.92
2018-08-30T08:29:03.119Z,65.07
2018-08-30T08:31:32.021Z,64.96
2018-08-30T08:34:00.689Z,65.37
2018-08-30T08:36:29.389Z,64.98
2018-08-30T08:38:58.080Z,64.45
2018-08-30T08:41:26.747Z,64.66
2018-08-30T08:43:55.504Z,63.79
2018-08-30T08:46:24.056Z,64.40
2018-08-30T08:48:52.610Z,64.47
2018-08-30T08:51:21.145Z,64.80
2018-08-30T08:53:49.782Z,63.80
2018-08-30T08:56:18.325Z,63.48
2018-08-30T08:58:46.933Z,63.82
2018-08-30T09:01:15.470Z,63.87
2018-08-30T09:03:44.352Z,64.55
2018-08-30T09:06:12.920Z,63.89
2018-08-30T09:08:41.495Z,63.70
2018-08-30T09:11:10.040Z,63.93
2018-08-30T09:13:38.727Z,63.65
2018-08-30T09:16:07.264Z,63.50
2018-08-30T09:18:35.839Z,63.60
2018-08-30T09:21:04.473Z,63.81
2018-08-30T09:23:34.216Z,63.54
2018-08-30T09:26:02.891Z,63.29
2018-08-30T09:28:31.771Z,63.89
2018-08-30T09:31:00.318Z,64.69
2018-08-30T09:33:28.884Z,63.96
2018-08-30T09:35:57.631Z,63.70
2018-08-30T09:38:27.163Z,63.47
2018-08-30T09:40:55.799Z,63.34
2018-08-30T09:43:24.487Z,62.69
2018-08-30T09:45:53.155Z,62.42
2018-08-30T09:48:22.473Z,62.24
2018-08-30T09:50:51.236Z,62.55
2018-08-30T09:53:20.668Z,62.83
2018-08-30T09:55:49.414Z,63.19
2018-08-30T09:58:17.925Z,63.29
2018-08-30T10:00:51.619Z,63.24
2018-08-30T10:03:20.525Z,62.14
2018-08-30T10:05:49.196Z,62.01
2018-08-30T10:08:17.891Z,61.90
2018-08-30T10:10:47.424Z,61.96
2018-08-30T10:13:16.094Z,61.91
2018-08-30T10:15:45.024Z,62.26
2018-08-30T10:18:13.844Z,62.22
2018-08-30T10:20:42.536Z,62.73
2018-08-30T10:23:11.124Z,63.58
2018-08-30T10:25:39.932Z,63.30
2018-08-30T10:28:08.580Z,63.95
2018-08-30T10:30:37.259Z,63.33
2018-08-30T10:33:06.127Z,63.74
2018-08-30T10:35:34.835Z,63.36
2018-08-30T10:38:03.581Z,63.09
2018-08-30T10:40:32.896Z,62.76
2018-08-30T10:43:02.390Z,62.13
2018-08-30T10:45:31.836Z,61.57
2018-08-30T10:48:00.523Z,60.75
2018-08-30T10:50:29.236Z,60.98
2018-08-30T10:52:57.919Z,59.76
2018-08-30T10:55:26.571Z,58.42
2018-08-30T10:57:55.212Z,58.08
2018-08-30T11:00:24.799Z,57.92
2018-08-30T11:02:53.461Z,58.55
2018-08-30T11:05:22.782Z,58.02
2018-08-30T11:07:51.454Z,58.63
2018-08-30T11:10:20.103Z,57.21
2018-08-30T11:12:48.910Z,57.11
2018-08-30T11:15:18.433Z,55.85
2018-08-30T11:17:47.204Z,55.50
2018-08-30T11:20:15.830Z,56.04
2018-08-30T11:22:45.182Z,55.67
2018-08-30T11:25:13.920Z,56.56
2018-08-30T11:27:43.623Z,56.59
2018-08-30T11:30:12.224Z,56.46
2018-08-30T11:32:40.820Z,55.63
2018-08-30T11:35:09.379Z,57.64
2018-08-30T11:37:37.986Z,58.37
2018-08-30T11:40:06.654Z,57.92
2018-08-30T11:42:35.365Z,59.01
2018-08-30T11:45:04.817Z,57.75
2018-08-30T11:47:34.595Z,57.67
2018-08-30T11:50:03.148Z,56.91
2018-08-30T11:52:32.745Z,56.73
2018-08-30T11:55:01.716Z,57.45
2018-08-30T11:57:30.286Z,57.95
2018-08-30T11:59:58.833Z,58.36
2018-08-30T12:02:27.406Z,56.61
2018-08-30T12:04:56.811Z,56.23
2018-08-30T12:07:25.391Z,55.33
2018-08-30T12:09:54.011Z,54.28
2018-08-30T12:12:22.535Z,53.55
2018-08-30T12:14:51.059Z,54.52
2018-08-30T12:17:19.667Z,53.89
2018-08-30T12:19:48.202Z,53.91
2018-08-30T12:22:16.816Z,54.13
2018-08-30T12:24:45.508Z,55.35
2018-08-30T12:27:14.161Z,56.64
2018-08-30T12:29:43.564Z,57.79
2018-08-30T12:32:12.848Z,58.02
2018-08-30T12:34:42.171Z,58.38
2018-08-30T12:37:11.163Z,60.90
2018-08-30T12:39:39.842Z,61.53
2018-08-30T12:42:09.306Z,62.25
2018-08-30T12:44:38.735Z,63.75
2018-08-30T12:47:08.316Z,64.84
2018-08-30T12:49:37.410Z,65.46
2018-08-30T12:52:06.138Z,65.96
2018-08-30T12:54:34.762Z,66.38
2018-08-30T12:57:03.648Z,67.87
2018-08-30T12:59:38.070Z,68.42
2018-08-30T13:02:06.838Z,69.32
2018-08-30T13:04:35.704Z,69.78
2018-08-30T13:07:04.596Z,70.93
2018-08-30T13:09:33.198Z,71.00
2018-08-30T13:12:02.040Z,71.62
2018-08-30T13:14:31.451Z,72.23
2018-08-30T13:16:59.982Z,71.84
2018-08-30T13:19:28.884Z,71.37
2018-08-30T13:21:57.785Z,70.54
2018-08-30T13:24:27.589Z,69.89
2018-08-30T13:26:56.440Z,68.89
2018-08-30T13:29:25.252Z,69.48
2018-08-30T13:31:54.745Z,68.12
2018-08-30T13:34:24.011Z,67.71
2018-08-30T13:36:52.557Z,67.40
2018-08-30T13:39:21.083Z,67.75
2018-08-30T13:41:49.482Z,67.68
2018-08-30T13:44:18.215Z,67.52
2018-08-30T13:46:47.241Z,68.46
2018-08-30T13:49:15.564Z,68.69
2018-08-30T13:51:44.474Z,68.76
2018-08-30T13:54:13.247Z,68.79
2018-08-30T13:56:42.098Z,68.16
2018-08-30T13:59:11.461Z,69.25
2018-08-30T14:01:40.650Z,68.87
2018-08-30T14:04:09.329Z,68.95
2018-08-30T14:06:38.174Z,68.04
2018-08-30T14:09:07.272Z,68.46
2018-08-30T14:11:35.983Z,68.27
2018-08-30T14:14:05.074Z,68.69
2018-08-30T14:16:33.356Z,68.30
2018-08-30T14:19:02.067Z,67.40
2018-08-30T14:21:30.963Z,67.88
2018-08-30T14:23:59.650Z,67.52
2018-08-30T14:26:28.327Z,67.28
2018-08-30T14:28:57.183Z,68.95
2018-08-30T14:31:25.904Z,68.22
2018-08-30T14:33:55.205Z,69.00
2018-08-30T14:36:24.095Z,67.49
2018-08-30T14:38:52.771Z,68.31
2018-08-30T14:41:22.104Z,68.68
2018-08-30T14:43:50.584Z,69.81
2018-08-30T14:46:19.318Z,70.75
2018-08-30T14:48:48.454Z,70.37
2018-08-30T14:51:17.295Z,71.27
2018-08-30T14:53:46.125Z,71.69
2018-08-30T14:56:15.419Z,72.11
2018-08-30T14:58:44.068Z,72.02
2018-08-30T15:01:12.744Z,72.89
2018-08-30T15:03:41.439Z,74.06
2018-08-30T15:06:10.518Z,73.47
2018-08-30T15:08:39.425Z,73.43
2018-08-30T15:11:08.428Z,74.07
2018-08-30T15:13:36.800Z,73.79
2018-08-30T15:16:06.248Z,74.54
2018-08-30T15:18:36.041Z,74.50
2018-08-30T15:21:04.885Z,74.83
2018-08-30T15:23:34.138Z,74.25
2018-08-30T15:26:03.284Z,75.45
2018-08-30T15:28:31.848Z,75.16
2018-08-30T15:31:00.451Z,75.42
2018-08-30T15:33:29.127Z,75.76
2018-08-30T15:35:59.131Z,75.25
2018-08-30T15:38:28.563Z,74.32
2018-08-30T15:40:57.300Z,74.61
2018-08-30T15:43:25.952Z,73.04
2018-08-30T15:45:55.243Z,72.24
2018-08-30T15:48:24.132Z,72.05
2018-08-30T15:50:53.708Z,70.47
2018-08-30T15:53:22.397Z,71.54
2018-08-30T15:55:51.036Z,71.21
2018-08-30T15:58:19.886Z,71.14
2018-08-30T16:00:49.792Z,71.50
2018-08-30T16:03:18.522Z,72.14
2018-08-30T16:05:47.174Z,72.05
2018-08-30T16:08:15.852Z,71.99
2018-08-30T16:10:44.752Z,72.98
2018-08-30T16:13:13.461Z,73.05
2018-08-30T16:15:42.131Z,73.98
2018-08-30T16:21:13.214Z,74.42
2018-08-30T16:23:41.769Z,74.57
2018-08-30T16:26:10.771Z,74.67
2018-08-30T16:28:39.463Z,74.31
2018-08-30T16:31:08.203Z,74.82
2018-08-30T16:33:37.439Z,75.66
2018-08-30T16:36:06.362Z,76.82
2018-08-30T16:38:34.988Z,77.45
2018-08-30T16:41:04.787Z,78.06
2018-08-30T16:43:33.452Z,77.55
2018-08-30T16:46:02.268Z,78.28
2018-08-30T16:48:31.189Z,78.44
2018-08-30T16:50:59.831Z,78.04
2018-08-30T16:53:28.600Z,77.46
2018-08-30T16:55:58.096Z,77.98
2018-08-30T16:58:27.345Z,77.50
2018-08-30T17:00:56.144Z,78.31
2018-08-30T17:03:25.013Z,76.63
2018-08-30T17:05:54.196Z,77.16
2018-08-30T17:08:23.995Z,77.62
2018-08-30T17:10:52.814Z,77.48
2018-08-30T17:13:22.314Z,78.10
2018-08-30T17:15:51.191Z,78.15
2018-08-30T17:18:19.784Z,76.19
2018-08-30T17:20:50.847Z,76.74
2018-08-30T17:23:19.699Z,77.85
2018-08-30T17:25:49.673Z,77.75
2018-08-30T17:28:18.484Z,78.31
2018-08-30T17:30:47.837Z,77.55
2018-08-30T17:33:16.402Z,78.07
2018-08-30T17:35:45.651Z,78.47
2018-08-30T17:38:14.272Z,77.94
2018-08-30T17:40:43.024Z,77.95
2018-08-30T17:43:11.665Z,78.78
2018-08-30T17:45:41.380Z,78.84
2018-08-30T17:48:09.957Z,79.66
2018-08-30T17:50:38.904Z,79.00
2018-08-30T17:53:07.599Z,79.35
2018-08-30T17:55:36.405Z,79.43
2018-08-30T17:58:05.242Z,78.89
2018-08-30T18:00:33.860Z,79.12
2018-08-30T18:03:03.448Z,79.53
2018-08-30T18:05:32.229Z,79.00
2018-08-30T18:08:01.567Z,79.22
2018-08-30T18:10:30.255Z,79.77
2018-08-30T18:12:59.677Z,79.64
2018-08-30T18:15:29.443Z,80.13
2018-08-30T18:17:58.613Z,79.78
2018-08-30T18:20:27.248Z,79.74
2018-08-30T18:22:55.924Z,79.42
2018-08-30T18:25:24.536Z,79.69
2018-08-30T18:27:53.257Z,79.99
2018-08-30T18:30:21.903Z,79.25
2018-08-30T18:32:50.734Z,78.52
2018-08-30T18:35:20.026Z,79.51
2018-08-30T18:37:48.680Z,80.26
2018-08-30T18:40:17.501Z,79.89
2018-08-30T18:42:46.270Z,80.15
2018-08-30T18:45:15.412Z,80.33
2018-08-30T18:47:44.172Z,80.43
2018-08-30T18:50:13.087Z,79.49
2018-08-30T18:52:41.843Z,80.11
2018-08-30T18:55:11.181Z,80.70
2018-08-30T18:57:39.896Z,80.91
2018-08-30T19:00:09.031Z,79.87
2018-08-30T19:02:38.332Z,80.36
2018-08-30T19:05:07.028Z,80.91
2018-08-30T19:07:35.946Z,80.36
2018-08-30T19:10:04.824Z,81.43
2018-08-30T19:12:33.775Z,80.90
2018-08-30T19:15:06.758Z,80.95
2018-08-30T19:17:40.573Z,81.28
2018-08-30T19:20:10.108Z,81.25
2018-08-30T19:22:38.700Z,80.89
2018-08-30T19:25:14.408Z,81.05
2018-08-30T19:27:44.078Z,80.74
2018-08-30T19:30:18.602Z,80.04
2018-08-30T19:32:47.560Z,80.75
2018-08-30T19:35:22.367Z,80.91
2018-08-30T19:37:51.480Z,80.28
2018-08-30T19:40:25.255Z,81.25
2018-08-30T19:42:55.107Z,81.22
2018-08-30T19:45:23.880Z,81.47
2018-08-30T19:47:52.439Z,80.75
2018-08-30T19:50:21.300Z,80.99
2018-08-30T19:52:49.980Z,80.95
2018-08-30T19:55:19.878Z,80.80
2018-08-30T19:57:48.648Z,81.77
2018-08-30T20:00:17.484Z,80.72
2018-08-30T20:02:47.185Z,80.98
2018-08-30T20:05:15.842Z,81.05
2018-08-30T20:07:44.564Z,81.48
2018-08-30T20:10:14.018Z,81.53
2018-08-30T20:12:42.580Z,82.02
2018-08-30T20:15:11.207Z,81.98
2018-08-30T20:17:39.920Z,82.22
2018-08-30T20:20:08.809Z,81.88
2018-08-30T20:22:37.503Z,81.97
2018-08-30T20:25:07.039Z,82.23
2018-08-30T20:27:36.059Z,81.67
2018-08-30T20:30:05.152Z,81.36
2018-08-30T20:32:33.780Z,81.02
2018-08-30T20:35:02.492Z,80.87
2018-08-30T20:37:31.191Z,80.77
2018-08-30T20:40:00.464Z,80.42
2018-08-30T20:42:29.167Z,79.99
2018-08-30T20:44:57.910Z,80.12
2018-08-30T20:47:26.588Z,80.10
2018-08-30T20:49:55.464Z,80.42
2018-08-30T20:52:24.991Z,80.00
2018-08-30T20:54:53.649Z,80.80
2018-08-30T20:57:22.473Z,80.29
2018-08-30T20:59:51.644Z,80.02
2018-08-30T21:02:20.431Z,80.23
2018-08-30T21:04:49.147Z,80.17
2018-08-30T21:07:18.028Z,80.29
2018-08-30T21:09:46.775Z,80.69
2018-08-30T21:12:15.690Z,80.31
2018-08-30T21:14:44.320Z,80.41
2018-08-30T21:17:14.089Z,80.39
2018-08-30T21:19:42.799Z,80.34
2018-08-30T21:22:11.379Z,79.75
2018-08-30T21:24:40.732Z,80.87
2018-08-30T21:27:10.092Z,80.33
2018-08-30T21:29:38.956Z,79.54
2018-08-30T21:32:08.352Z,80.11
2018-08-30T21:34:37.171Z,79.96
2018-08-30T21:37:05.989Z,80.22
2018-08-30T21:39:34.904Z,79.47
2018-08-30T21:42:03.546Z,80.04
2018-08-30T21:44:32.275Z,80.03
2018-08-30T21:47:02.607Z,80.68
2018-08-30T21:49:35.610Z,80.47
2018-08-30T21:52:11.464Z,80.34
2018-08-30T21:54:47.821Z,80.12
2018-08-30T21:57:27.139Z,80.75
2018-08-30T21:59:57.226Z,80.88
2018-08-30T22:02:26.557Z,80.80
2018-08-30T22:04:55.280Z,80.91
2018-08-30T22:07:24.304Z,80.57
2018-08-30T22:09:53.072Z,81.10
2018-08-30T22:12:21.759Z,81.99
2018-08-30T22:14:50.443Z,81.63
2018-08-30T22:23:14.599Z,81.44
2018-08-30T22:25:43.207Z,81.58
2018-08-30T22:28:12.109Z,82.19
2018-08-30T22:30:40.719Z,82.38
2018-08-30T22:33:09.429Z,82.64
2018-08-30T22:35:38.088Z,82.82
2018-08-30T22:38:07.412Z,82.87
2018-08-30T22:40:36.078Z,82.80
2018-08-30T22:43:04.811Z,82.99
2018-08-30T22:45:34.007Z,82.49
2018-08-30T22:48:02.756Z,82.45
2018-08-30T22:50:31.873Z,82.09
2018-08-30T22:53:00.519Z,82.09
2018-08-30T22:55:30.230Z,82.06
2018-08-30T22:57:58.960Z,81.70
2018-08-30T23:00:27.812Z,80.85
2018-08-30T23:02:56.448Z,80.75
2018-08-30T23:05:25.401Z,80.25
2018-08-30T23:07:54.088Z,81.47
2018-08-30T23:10:22.724Z,81.36
2018-08-30T23:12:51.416Z,81.07
2018-08-30T23:15:20.319Z,80.88
2018-08-30T23:17:49.095Z,81.40
2018-08-30T23:20:17.705Z,81.48
2018-08-30T23:22:46.659Z,81.33
2018-08-30T23:25:15.264Z,80.72
2018-08-30T23:27:43.921Z,81.50
2018-08-30T23:30:12.497Z,81.96
2018-08-30T23:32:41.126Z,82.48
2018-08-30T23:35:10.412Z,82.76
2018-08-30T23:37:39.084Z,82.45
2018-08-30T23:40:10.102Z,82.23
2018-08-30T23:42:39.123Z,82.25
2018-08-30T23:45:08.207Z,82.02
2018-08-30T23:47:36.907Z,81.85
2018-08-30T23:50:05.795Z,81.83
2018-08-30T23:52:34.829Z,81.43
2018-08-30T23:55:03.590Z,81.49
2018-08-30T23:57:32.152Z,80.91
